ITY576 LIRF-LSGG
Flight info
| Callsign | ITY576 |
|---|---|
| Flight time | N/A |
| Altitude | 38000 |
| Route | NEMBO DCT GOVGO DCT SPEZI DCT IDONA DCT TONDA DCT AOSTA/N0420F300 L615 BANKO |
| Aircraft | A21N/M-SDE2E3FGHIJ1RWXY/LB1 |
Departure
| Time | 2026-05-07 16:01 |
|---|---|
| Airport | Rome–Fiumicino Leonardo da Vinci International Airport (LIRF) |
Arrival
| Time | N/A |
|---|---|
| Airport | Geneva International Airport (LSGG) |
| Time | Latitude | Longitude | Altitude | Speed | Heading |
|---|---|---|---|---|---|
| 2026-05-07 15:41 | 41.79768 | 12.25670 | 18 ft | 0 kts | 295° |
| 2026-05-07 15:53 | 41.79762 | 12.25688 | 19 ft | 2 kts | 295° |
| 2026-05-07 15:54 | 41.79756 | 12.25705 | 19 ft | 2 kts | 295° |
| 2026-05-07 15:54 | 41.79747 | 12.25721 | 19 ft | 2 kts | 333° |
| 2026-05-07 15:54 | 41.79732 | 12.25725 | 19 ft | 2 kts | 12° |
| 2026-05-07 15:54 | 41.79725 | 12.25721 | 19 ft | 1 kts | 30° |
| 2026-05-07 15:55 | 41.79722 | 12.25719 | 19 ft | 0 kts | 25° |
| 2026-05-07 15:56 | 41.79741 | 12.25732 | 18 ft | 8 kts | 25° |
| 2026-05-07 15:57 | 41.79821 | 12.25783 | 19 ft | 15 kts | 29° |
| 2026-05-07 15:57 | 41.79921 | 12.25854 | 17 ft | 17 kts | 27° |
| 2026-05-07 15:57 | 41.80042 | 12.25929 | 15 ft | 20 kts | 24° |
| 2026-05-07 15:57 | 41.80177 | 12.26010 | 15 ft | 21 kts | 24° |
| 2026-05-07 15:58 | 41.80319 | 12.26093 | 15 ft | 22 kts | 27° |
| 2026-05-07 15:58 | 41.80468 | 12.26183 | 15 ft | 23 kts | 14° |
| 2026-05-07 15:58 | 41.80554 | 12.26350 | 12 ft | 24 kts | 67° |
| 2026-05-07 15:58 | 41.80616 | 12.26563 | 11 ft | 25 kts | 70° |
| 2026-05-07 15:59 | 41.80677 | 12.26785 | 9 ft | 24 kts | 70° |
| 2026-05-07 15:59 | 41.80730 | 12.26974 | 9 ft | 10 kts | 67° |
| 2026-05-07 15:59 | 41.80782 | 12.27053 | 9 ft | 10 kts | 23° |
| 2026-05-07 15:59 | 41.80854 | 12.27018 | 9 ft | 14 kts | 336° |
| 2026-05-07 16:00 | 41.80949 | 12.26942 | 10 ft | 17 kts | 286° |
| 2026-05-07 16:00 | 41.80918 | 12.26780 | 9 ft | 20 kts | 249° |
| 2026-05-07 16:00 | 41.80822 | 12.26431 | 12 ft | 78 kts | 249° |
| 2026-05-07 16:00 | 41.80529 | 12.25370 | 14 ft | 161 kts | 251° |
| 2026-05-07 16:01 | 41.80105 | 12.23820 | 687 ft | 183 kts | 251° |
| 2026-05-07 16:01 | 41.79644 | 12.22182 | 1655 ft | 197 kts | 250° |
| 2026-05-07 16:01 | 41.79239 | 12.20437 | 2716 ft | 205 kts | 264° |
| 2026-05-07 16:01 | 41.79143 | 12.18565 | 3834 ft | 200 kts | 268° |
| 2026-05-07 16:02 | 41.79068 | 12.16665 | 4553 ft | 202 kts | 269° |
| 2026-05-07 16:02 | 41.79034 | 12.14731 | 5076 ft | 215 kts | 271° |
| 2026-05-07 16:02 | 41.79036 | 12.12592 | 5534 ft | 233 kts | 271° |
| 2026-05-07 16:02 | 41.79019 | 12.10334 | 5988 ft | 251 kts | 270° |
| 2026-05-07 16:03 | 41.79008 | 12.07868 | 6520 ft | 266 kts | 271° |
| 2026-05-07 16:03 | 41.79016 | 12.05336 | 7308 ft | 271 kts | 271° |
| 2026-05-07 16:03 | 41.79022 | 12.02808 | 8120 ft | 273 kts | 271° |
| 2026-05-07 16:03 | 41.79023 | 12.00238 | 8896 ft | 277 kts | 271° |
| 2026-05-07 16:04 | 41.79020 | 11.97639 | 9640 ft | 280 kts | 271° |
| 2026-05-07 16:04 | 41.79015 | 11.94954 | 10351 ft | 285 kts | 271° |
| 2026-05-07 16:04 | 41.79009 | 11.92196 | 10742 ft | 300 kts | 271° |
| 2026-05-07 16:04 | 41.79002 | 11.89257 | 11060 ft | 318 kts | 271° |
| 2026-05-07 16:05 | 41.78993 | 11.86199 | 11418 ft | 333 kts | 271° |
| 2026-05-07 16:05 | 41.78982 | 11.83071 | 12044 ft | 338 kts | 271° |
| 2026-05-07 16:05 | 41.78969 | 11.79853 | 12762 ft | 341 kts | 271° |
| 2026-05-07 16:05 | 41.78955 | 11.76625 | 13444 ft | 343 kts | 272° |
| 2026-05-07 16:06 | 41.78940 | 11.73368 | 14108 ft | 346 kts | 272° |
| 2026-05-07 16:06 | 41.78925 | 11.70131 | 14746 ft | 348 kts | 272° |
| 2026-05-07 16:06 | 41.78908 | 11.66867 | 15367 ft | 351 kts | 272° |
| 2026-05-07 16:06 | 41.78890 | 11.63558 | 15973 ft | 353 kts | 272° |
| 2026-05-07 16:07 | 41.78872 | 11.60213 | 16564 ft | 356 kts | 272° |
| 2026-05-07 16:07 | 41.79086 | 11.56892 | 17112 ft | 355 kts | 286° |
| 2026-05-07 16:07 | 41.79985 | 11.53813 | 17671 ft | 353 kts | 302° |
| 2026-05-07 16:07 | 41.81438 | 11.51202 | 18228 ft | 352 kts | 312° |
| 2026-05-07 16:08 | 41.83076 | 11.48712 | 18765 ft | 354 kts | 313° |
| 2026-05-07 16:08 | 41.84732 | 11.46231 | 19273 ft | 357 kts | 313° |
| 2026-05-07 16:08 | 41.86426 | 11.43682 | 19690 ft | 362 kts | 313° |
| 2026-05-07 16:08 | 41.88107 | 11.41138 | 20129 ft | 365 kts | 313° |
| 2026-05-07 16:09 | 41.89800 | 11.38563 | 20626 ft | 367 kts | 313° |
| 2026-05-07 16:09 | 41.91507 | 11.35958 | 21113 ft | 369 kts | 313° |
| 2026-05-07 16:09 | 41.93208 | 11.33350 | 21582 ft | 371 kts | 312° |
| 2026-05-07 16:09 | 41.94908 | 11.30733 | 22040 ft | 372 kts | 312° |
| 2026-05-07 16:10 | 41.96663 | 11.28029 | 22501 ft | 374 kts | 312° |
| 2026-05-07 16:10 | 41.98371 | 11.25397 | 22940 ft | 376 kts | 313° |
| 2026-05-07 16:10 | 42.00123 | 11.22699 | 23375 ft | 378 kts | 313° |
| 2026-05-07 16:10 | 42.01887 | 11.19980 | 23717 ft | 382 kts | 313° |
| 2026-05-07 16:11 | 42.03652 | 11.17261 | 24037 ft | 386 kts | 313° |
| 2026-05-07 16:11 | 42.05443 | 11.14498 | 24439 ft | 388 kts | 313° |
| 2026-05-07 16:11 | 42.07196 | 11.11789 | 24837 ft | 389 kts | 313° |
| 2026-05-07 16:11 | 42.09009 | 11.08986 | 25231 ft | 391 kts | 313° |
| 2026-05-07 16:12 | 42.10784 | 11.06243 | 25607 ft | 392 kts | 313° |
| 2026-05-07 16:12 | 42.12622 | 11.03418 | 25995 ft | 394 kts | 313° |
| 2026-05-07 16:12 | 42.14430 | 11.00634 | 26354 ft | 396 kts | 313° |
| 2026-05-07 16:12 | 42.16235 | 10.97844 | 26693 ft | 398 kts | 313° |
| 2026-05-07 16:13 | 42.18053 | 10.95026 | 27016 ft | 401 kts | 312° |
| 2026-05-07 16:13 | 42.19888 | 10.92172 | 27329 ft | 403 kts | 312° |
| 2026-05-07 16:13 | 42.21738 | 10.89288 | 27635 ft | 405 kts | 312° |
| 2026-05-07 16:13 | 42.23577 | 10.86421 | 27928 ft | 408 kts | 312° |
| 2026-05-07 16:14 | 42.25426 | 10.83539 | 28210 ft | 410 kts | 312° |
| 2026-05-07 16:14 | 42.27469 | 10.80742 | 28475 ft | 412 kts | 319° |
| 2026-05-07 16:14 | 42.29699 | 10.78420 | 28735 ft | 415 kts | 326° |
| 2026-05-07 16:14 | 42.32193 | 10.76471 | 29011 ft | 418 kts | 333° |
| 2026-05-07 16:15 | 42.34878 | 10.74941 | 29336 ft | 419 kts | 338° |
| 2026-05-07 16:15 | 42.37624 | 10.73564 | 29765 ft | 417 kts | 338° |
| 2026-05-07 16:15 | 42.40296 | 10.72252 | 30175 ft | 415 kts | 338° |
| 2026-05-07 16:15 | 42.43016 | 10.70919 | 30556 ft | 414 kts | 338° |
| 2026-05-07 16:16 | 42.45616 | 10.69640 | 30899 ft | 413 kts | 338° |
| 2026-05-07 16:16 | 42.48323 | 10.68304 | 31247 ft | 412 kts | 338° |
| 2026-05-07 16:16 | 42.50947 | 10.67006 | 31584 ft | 411 kts | 338° |
| 2026-05-07 16:16 | 42.53570 | 10.65706 | 31921 ft | 409 kts | 338° |
| 2026-05-07 16:17 | 42.56160 | 10.64421 | 32255 ft | 408 kts | 338° |
| 2026-05-07 16:17 | 42.58815 | 10.63101 | 32589 ft | 407 kts | 338° |
| 2026-05-07 16:17 | 42.61424 | 10.61804 | 32914 ft | 406 kts | 338° |
| 2026-05-07 16:17 | 42.64045 | 10.60498 | 33242 ft | 405 kts | 338° |
| 2026-05-07 16:18 | 42.66698 | 10.59176 | 33569 ft | 403 kts | 338° |
| 2026-05-07 16:18 | 42.69325 | 10.57865 | 33885 ft | 402 kts | 338° |
| 2026-05-07 16:18 | 42.71903 | 10.56577 | 34195 ft | 401 kts | 338° |
| 2026-05-07 16:18 | 42.74467 | 10.55295 | 34493 ft | 400 kts | 338° |
| 2026-05-07 16:19 | 42.77075 | 10.53990 | 34781 ft | 400 kts | 338° |
| 2026-05-07 16:19 | 42.79680 | 10.52685 | 35063 ft | 399 kts | 338° |
| 2026-05-07 16:19 | 42.82245 | 10.51399 | 35338 ft | 398 kts | 338° |
| 2026-05-07 16:19 | 42.84812 | 10.50111 | 35599 ft | 397 kts | 338° |
| 2026-05-07 16:20 | 42.87412 | 10.48805 | 35854 ft | 397 kts | 338° |
| 2026-05-07 16:20 | 42.89988 | 10.47510 | 36100 ft | 396 kts | 338° |
| 2026-05-07 16:20 | 42.92587 | 10.46202 | 36343 ft | 396 kts | 338° |
| 2026-05-07 16:20 | 42.95173 | 10.44899 | 36575 ft | 395 kts | 338° |
| 2026-05-07 16:21 | 42.97778 | 10.43583 | 36796 ft | 395 kts | 338° |
| 2026-05-07 16:21 | 43.00315 | 10.42300 | 37002 ft | 395 kts | 338° |
| 2026-05-07 16:21 | 43.02916 | 10.40983 | 37212 ft | 395 kts | 337° |
| 2026-05-07 16:21 | 43.05483 | 10.39685 | 37418 ft | 394 kts | 337° |
| 2026-05-07 16:22 | 43.07895 | 10.38463 | 37606 ft | 394 kts | 337° |
| 2026-05-07 16:22 | 43.10459 | 10.37106 | 37779 ft | 393 kts | 335° |